sensor_id;sensor_type;location;lat;lon;timestamp;P1;durP1;ratioP1;P2;durP2;ratioP2
18812;SDS011;9534;51.140;6.296;2022-07-30T00:03:20;8.15;;;2.70;;
18812;SDS011;9534;51.140;6.296;2022-07-30T00:07:23;9.32;;;3.53;;
18812;SDS011;9534;51.140;6.296;2022-07-30T00:11:26;10.52;;;3.05;;
18812;SDS011;9534;51.140;6.296;2022-07-30T00:15:31;7.03;;;3.55;;
18812;SDS011;9534;51.140;6.296;2022-07-30T00:19:34;8.23;;;3.63;;
18812;SDS011;9534;51.140;6.296;2022-07-30T00:23:37;7.47;;;3.22;;
18812;SDS011;9534;51.140;6.296;2022-07-30T00:28:00;4.05;;;2.72;;
18812;SDS011;9534;51.140;6.296;2022-07-30T00:32:05;7.63;;;3.05;;
18812;SDS011;9534;51.140;6.296;2022-07-30T00:36:08;7.88;;;3.30;;
18812;SDS011;9534;51.140;6.296;2022-07-30T00:40:11;4.95;;;3.00;;
18812;SDS011;9534;51.140;6.296;2022-07-30T00:44:14;6.18;;;2.92;;
18812;SDS011;9534;51.140;6.296;2022-07-30T00:48:18;7.70;;;3.60;;
18812;SDS011;9534;51.140;6.296;2022-07-30T00:52:21;6.65;;;3.58;;
18812;SDS011;9534;51.140;6.296;2022-07-30T00:56:25;6.68;;;4.03;;
18812;SDS011;9534;51.140;6.296;2022-07-30T01:06:29;5.90;;;3.30;;
18812;SDS011;9534;51.140;6.296;2022-07-30T01:10:32;9.93;;;3.75;;
18812;SDS011;9534;51.140;6.296;2022-07-30T01:14:36;12.68;;;3.83;;
18812;SDS011;9534;51.140;6.296;2022-07-30T01:18:39;8.25;;;3.92;;
18812;SDS011;9534;51.140;6.296;2022-07-30T01:23:06;7.43;;;3.58;;
18812;SDS011;9534;51.140;6.296;2022-07-30T01:27:16;8.50;;;3.80;;
18812;SDS011;9534;51.140;6.296;2022-07-30T01:31:21;5.03;;;3.38;;
18812;SDS011;9534;51.140;6.296;2022-07-30T01:35:28;7.72;;;3.83;;
18812;SDS011;9534;51.140;6.296;2022-07-30T01:39:33;11.57;;;4.00;;
18812;SDS011;9534;51.140;6.296;2022-07-30T01:43:39;7.40;;;3.70;;
18812;SDS011;9534;51.140;6.296;2022-07-30T01:47:43;6.82;;;3.10;;
18812;SDS011;9534;51.140;6.296;2022-07-30T01:51:49;8.57;;;3.47;;
18812;SDS011;9534;51.140;6.296;2022-07-30T01:55:54;6.32;;;3.50;;
18812;SDS011;9534;51.140;6.296;2022-07-30T02:00:00;6.82;;;3.90;;
18812;SDS011;9534;51.140;6.296;2022-07-30T02:04:16;8.38;;;4.53;;
18812;SDS011;9534;51.140;6.296;2022-07-30T02:08:21;8.93;;;4.45;;
18812;SDS011;9534;51.140;6.296;2022-07-30T02:12:30;11.18;;;4.30;;
18812;SDS011;9534;51.140;6.296;2022-07-30T02:16:42;9.15;;;4.07;;
18812;SDS011;9534;51.140;6.296;2022-07-30T02:20:52;10.10;;;4.63;;
18812;SDS011;9534;51.140;6.296;2022-07-30T02:25:03;9.10;;;4.60;;
18812;SDS011;9534;51.140;6.296;2022-07-30T02:29:08;9.65;;;4.22;;
18812;SDS011;9534;51.140;6.296;2022-07-30T02:33:14;12.93;;;4.88;;
18812;SDS011;9534;51.140;6.296;2022-07-30T02:37:20;19.70;;;5.13;;
18812;SDS011;9534;51.140;6.296;2022-07-30T02:41:44;14.25;;;4.88;;
18812;SDS011;9534;51.140;6.296;2022-07-30T02:45:51;16.67;;;5.38;;
18812;SDS011;9534;51.140;6.296;2022-07-30T02:50:00;9.38;;;4.60;;
18812;SDS011;9534;51.140;6.296;2022-07-30T02:54:06;8.82;;;5.00;;
18812;SDS011;9534;51.140;6.296;2022-07-30T02:58:14;9.77;;;4.75;;
18812;SDS011;9534;51.140;6.296;2022-07-30T03:02:18;13.70;;;5.07;;
18812;SDS011;9534;51.140;6.296;2022-07-30T03:06:31;12.52;;;6.03;;
18812;SDS011;9534;51.140;6.296;2022-07-30T03:10:35;19.35;;;5.85;;
18812;SDS011;9534;51.140;6.296;2022-07-30T03:14:39;9.05;;;5.05;;
18812;SDS011;9534;51.140;6.296;2022-07-30T03:18:42;11.23;;;5.25;;
18812;SDS011;9534;51.140;6.296;2022-07-30T03:22:49;13.35;;;5.90;;
18812;SDS011;9534;51.140;6.296;2022-07-30T03:26:54;15.15;;;5.95;;
18812;SDS011;9534;51.140;6.296;2022-07-30T03:31:01;11.07;;;5.88;;
18812;SDS011;9534;51.140;6.296;2022-07-30T03:35:06;17.50;;;5.82;;
18812;SDS011;9534;51.140;6.296;2022-07-30T03:39:20;11.68;;;6.03;;
18812;SDS011;9534;51.140;6.296;2022-07-30T03:43:24;12.20;;;6.18;;
18812;SDS011;9534;51.140;6.296;2022-07-30T03:47:35;24.30;;;7.13;;
18812;SDS011;9534;51.140;6.296;2022-07-30T03:51:40;16.00;;;6.63;;
18812;SDS011;9534;51.140;6.296;2022-07-30T03:55:45;17.30;;;7.28;;
18812;SDS011;9534;51.140;6.296;2022-07-30T04:00:11;20.00;;;6.57;;
18812;SDS011;9534;51.140;6.296;2022-07-30T04:04:20;15.43;;;7.13;;
18812;SDS011;9534;51.140;6.296;2022-07-30T04:08:24;19.67;;;6.90;;
18812;SDS011;9534;51.140;6.296;2022-07-30T04:12:30;18.35;;;6.70;;
18812;SDS011;9534;51.140;6.296;2022-07-30T04:16:36;33.10;;;7.88;;
18812;SDS011;9534;51.140;6.296;2022-07-30T04:20:48;20.85;;;7.82;;
18812;SDS011;9534;51.140;6.296;2022-07-30T04:24:54;20.45;;;7.80;;
18812;SDS011;9534;51.140;6.296;2022-07-30T04:28:59;29.23;;;8.55;;
18812;SDS011;9534;51.140;6.296;2022-07-30T04:33:05;26.17;;;8.13;;
18812;SDS011;9534;51.140;6.296;2022-07-30T04:37:09;26.17;;;8.43;;
18812;SDS011;9534;51.140;6.296;2022-07-30T04:41:12;22.80;;;9.02;;
18812;SDS011;9534;51.140;6.296;2022-07-30T04:45:36;25.40;;;8.52;;
18812;SDS011;9534;51.140;6.296;2022-07-30T04:49:40;15.13;;;6.63;;
18812;SDS011;9534;51.140;6.296;2022-07-30T04:53:45;23.75;;;8.13;;
18812;SDS011;9534;51.140;6.296;2022-07-30T04:57:52;15.23;;;6.72;;
18812;SDS011;9534;51.140;6.296;2022-07-30T05:01:57;23.13;;;7.93;;
18812;SDS011;9534;51.140;6.296;2022-07-30T05:06:02;23.17;;;7.53;;
18812;SDS011;9534;51.140;6.296;2022-07-30T05:10:10;23.60;;;8.20;;
18812;SDS011;9534;51.140;6.296;2022-07-30T05:14:15;26.58;;;8.82;;
18812;SDS011;9534;51.140;6.296;2022-07-30T05:18:20;24.80;;;8.48;;
18812;SDS011;9534;51.140;6.296;2022-07-30T05:22:23;18.30;;;7.82;;
18812;SDS011;9534;51.140;6.296;2022-07-30T05:26:30;24.42;;;8.32;;
18812;SDS011;9534;51.140;6.296;2022-07-30T05:30:34;22.67;;;8.65;;
18812;SDS011;9534;51.140;6.296;2022-07-30T05:34:38;25.45;;;8.80;;
18812;SDS011;9534;51.140;6.296;2022-07-30T05:38:41;20.25;;;7.88;;
18812;SDS011;9534;51.140;6.296;2022-07-30T05:43:05;24.02;;;8.52;;
18812;SDS011;9534;51.140;6.296;2022-07-30T05:47:08;24.70;;;8.52;;
18812;SDS011;9534;51.140;6.296;2022-07-30T05:51:14;24.10;;;9.25;;
18812;SDS011;9534;51.140;6.296;2022-07-30T05:55:17;23.10;;;9.07;;
18812;SDS011;9534;51.140;6.296;2022-07-30T05:59:28;23.10;;;9.00;;
18812;SDS011;9534;51.140;6.296;2022-07-30T06:03:44;22.58;;;9.95;;
18812;SDS011;9534;51.140;6.296;2022-07-30T06:08:07;21.48;;;8.70;;
18812;SDS011;9534;51.140;6.296;2022-07-30T06:12:10;24.63;;;9.70;;
18812;SDS011;9534;51.140;6.296;2022-07-30T06:16:14;25.65;;;10.02;;
18812;SDS011;9534;51.140;6.296;2022-07-30T06:20:19;24.83;;;9.65;;
18812;SDS011;9534;51.140;6.296;2022-07-30T06:24:44;29.88;;;11.35;;
18812;SDS011;9534;51.140;6.296;2022-07-30T06:28:56;19.00;;;8.05;;
18812;SDS011;9534;51.140;6.296;2022-07-30T06:33:03;21.02;;;8.05;;
18812;SDS011;9534;51.140;6.296;2022-07-30T06:37:06;20.52;;;7.53;;
18812;SDS011;9534;51.140;6.296;2022-07-30T06:41:11;23.77;;;9.55;;
18812;SDS011;9534;51.140;6.296;2022-07-30T06:45:25;23.20;;;9.00;;
18812;SDS011;9534;51.140;6.296;2022-07-30T06:49:49;21.05;;;8.45;;
18812;SDS011;9534;51.140;6.296;2022-07-30T06:53:52;25.02;;;8.75;;
18812;SDS011;9534;51.140;6.296;2022-07-30T06:58:19;19.80;;;8.30;;
18812;SDS011;9534;51.140;6.296;2022-07-30T07:02:49;22.10;;;10.10;;
18812;SDS011;9534;51.140;6.296;2022-07-30T07:07:02;25.05;;;9.50;;
18812;SDS011;9534;51.140;6.296;2022-07-30T07:11:13;24.42;;;9.48;;
18812;SDS011;9534;51.140;6.296;2022-07-30T07:15:21;18.80;;;8.80;;
18812;SDS011;9534;51.140;6.296;2022-07-30T07:19:38;21.98;;;9.68;;
18812;SDS011;9534;51.140;6.296;2022-07-30T07:24:02;22.45;;;9.50;;
18812;SDS011;9534;51.140;6.296;2022-07-30T07:28:38;17.73;;;8.45;;
18812;SDS011;9534;51.140;6.296;2022-07-30T07:32:43;23.65;;;8.93;;
18812;SDS011;9534;51.140;6.296;2022-07-30T07:36:47;29.95;;;10.60;;
18812;SDS011;9534;51.140;6.296;2022-07-30T07:40:50;26.35;;;10.02;;
18812;SDS011;9534;51.140;6.296;2022-07-30T07:44:53;21.35;;;8.45;;
18812;SDS011;9534;51.140;6.296;2022-07-30T07:48:58;21.05;;;8.13;;
18812;SDS011;9534;51.140;6.296;2022-07-30T07:53:16;18.50;;;8.07;;
18812;SDS011;9534;51.140;6.296;2022-07-30T07:57:20;20.10;;;8.45;;
18812;SDS011;9534;51.140;6.296;2022-07-30T08:01:23;16.35;;;5.90;;
18812;SDS011;9534;51.140;6.296;2022-07-30T08:05:46;13.88;;;5.15;;
18812;SDS011;9534;51.140;6.296;2022-07-30T08:10:25;12.52;;;6.28;;
18812;SDS011;9534;51.140;6.296;2022-07-30T08:14:47;12.90;;;7.13;;
18812;SDS011;9534;51.140;6.296;2022-07-30T08:19:09;14.73;;;7.75;;
18812;SDS011;9534;51.140;6.296;2022-07-30T08:23:24;18.00;;;7.18;;
18812;SDS011;9534;51.140;6.296;2022-07-30T08:27:28;12.20;;;6.20;;
18812;SDS011;9534;51.140;6.296;2022-07-30T08:31:31;9.23;;;4.90;;
18812;SDS011;9534;51.140;6.296;2022-07-30T08:35:35;9.77;;;6.05;;
18812;SDS011;9534;51.140;6.296;2022-07-30T08:39:50;8.23;;;4.68;;
18812;SDS011;9534;51.140;6.296;2022-07-30T08:43:53;8.30;;;4.93;;
18812;SDS011;9534;51.140;6.296;2022-07-30T08:47:58;8.88;;;4.72;;
18812;SDS011;9534;51.140;6.296;2022-07-30T08:52:13;11.25;;;5.63;;
18812;SDS011;9534;51.140;6.296;2022-07-30T08:56:30;11.82;;;6.07;;
18812;SDS011;9534;51.140;6.296;2022-07-30T09:00:34;11.25;;;4.90;;
18812;SDS011;9534;51.140;6.296;2022-07-30T09:04:37;12.15;;;5.30;;
18812;SDS011;9534;51.140;6.296;2022-07-30T09:08:41;6.00;;;3.55;;
18812;SDS011;9534;51.140;6.296;2022-07-30T09:12:46;8.48;;;3.70;;
18812;SDS011;9534;51.140;6.296;2022-07-30T09:16:54;6.50;;;4.03;;
18812;SDS011;9534;51.140;6.296;2022-07-30T09:20:59;7.97;;;4.10;;
18812;SDS011;9534;51.140;6.296;2022-07-30T09:25:03;11.85;;;5.95;;
18812;SDS011;9534;51.140;6.296;2022-07-30T09:29:31;11.85;;;5.05;;
18812;SDS011;9534;51.140;6.296;2022-07-30T09:33:53;8.65;;;5.05;;
18812;SDS011;9534;51.140;6.296;2022-07-30T09:38:15;9.93;;;5.72;;
18812;SDS011;9534;51.140;6.296;2022-07-30T09:42:38;9.30;;;5.25;;
18812;SDS011;9534;51.140;6.296;2022-07-30T09:46:46;7.82;;;4.90;;
18812;SDS011;9534;51.140;6.296;2022-07-30T09:51:12;7.35;;;4.10;;
18812;SDS011;9534;51.140;6.296;2022-07-30T09:55:27;11.77;;;5.32;;
18812;SDS011;9534;51.140;6.296;2022-07-30T09:59:33;7.82;;;4.80;;
18812;SDS011;9534;51.140;6.296;2022-07-30T10:03:41;6.03;;;3.80;;
18812;SDS011;9534;51.140;6.296;2022-07-30T10:08:16;6.68;;;2.97;;
18812;SDS011;9534;51.140;6.296;2022-07-30T10:12:21;7.40;;;3.33;;
18812;SDS011;9534;51.140;6.296;2022-07-30T10:16:27;6.45;;;4.10;;
18812;SDS011;9534;51.140;6.296;2022-07-30T10:20:33;5.35;;;2.80;;
18812;SDS011;9534;51.140;6.296;2022-07-30T10:24:55;5.97;;;3.58;;
18812;SDS011;9534;51.140;6.296;2022-07-30T10:29:18;4.63;;;3.00;;
18812;SDS011;9534;51.140;6.296;2022-07-30T10:33:34;4.85;;;2.35;;
18812;SDS011;9534;51.140;6.296;2022-07-30T10:37:43;3.63;;;1.83;;
18812;SDS011;9534;51.140;6.296;2022-07-30T10:41:52;13.98;;;7.05;;
18812;SDS011;9534;51.140;6.296;2022-07-30T10:46:07;4.93;;;2.25;;
18812;SDS011;9534;51.140;6.296;2022-07-30T10:50:23;2.97;;;1.80;;
18812;SDS011;9534;51.140;6.296;2022-07-30T10:54:40;6.32;;;1.73;;
18812;SDS011;9534;51.140;6.296;2022-07-30T10:59:01;6.82;;;2.38;;
18812;SDS011;9534;51.140;6.296;2022-07-30T11:03:18;4.97;;;2.35;;
18812;SDS011;9534;51.140;6.296;2022-07-30T11:07:41;4.25;;;2.25;;
18812;SDS011;9534;51.140;6.296;2022-07-30T11:11:49;4.07;;;2.30;;
18812;SDS011;9534;51.140;6.296;2022-07-30T11:16:12;5.50;;;2.40;;
18812;SDS011;9534;51.140;6.296;2022-07-30T11:20:15;5.80;;;2.72;;
18812;SDS011;9534;51.140;6.296;2022-07-30T11:24:41;6.72;;;3.03;;
18812;SDS011;9534;51.140;6.296;2022-07-30T11:28:48;3.13;;;2.20;;
18812;SDS011;9534;51.140;6.296;2022-07-30T11:32:53;3.35;;;2.08;;
18812;SDS011;9534;51.140;6.296;2022-07-30T11:37:10;3.50;;;2.10;;
18812;SDS011;9534;51.140;6.296;2022-07-30T11:41:23;3.60;;;2.22;;
18812;SDS011;9534;51.140;6.296;2022-07-30T11:45:28;3.70;;;2.13;;
18812;SDS011;9534;51.140;6.296;2022-07-30T11:49:33;2.30;;;1.70;;
18812;SDS011;9534;51.140;6.296;2022-07-30T11:53:37;3.58;;;1.80;;
18812;SDS011;9534;51.140;6.296;2022-07-30T11:57:40;5.57;;;1.80;;
18812;SDS011;9534;51.140;6.296;2022-07-30T12:01:49;2.28;;;1.10;;
18812;SDS011;9534;51.140;6.296;2022-07-30T12:05:53;2.75;;;1.45;;
18812;SDS011;9534;51.140;6.296;2022-07-30T12:10:10;4.93;;;1.80;;
18812;SDS011;9534;51.140;6.296;2022-07-30T12:14:16;3.20;;;1.50;;
18812;SDS011;9534;51.140;6.296;2022-07-30T12:18:24;2.42;;;1.40;;
18812;SDS011;9534;51.140;6.296;2022-07-30T12:22:30;2.28;;;1.30;;
18812;SDS011;9534;51.140;6.296;2022-07-30T12:26:36;2.05;;;1.40;;
18812;SDS011;9534;51.140;6.296;2022-07-30T12:30:39;3.45;;;1.25;;
18812;SDS011;9534;51.140;6.296;2022-07-30T12:34:53;6.43;;;2.88;;
18812;SDS011;9534;51.140;6.296;2022-07-30T12:38:57;1.60;;;1.17;;
18812;SDS011;9534;51.140;6.296;2022-07-30T12:43:00;1.48;;;1.23;;
18812;SDS011;9534;51.140;6.296;2022-07-30T12:47:04;1.60;;;1.02;;
18812;SDS011;9534;51.140;6.296;2022-07-30T12:51:21;2.28;;;1.30;;
18812;SDS011;9534;51.140;6.296;2022-07-30T12:55:29;1.40;;;0.93;;
18812;SDS011;9534;51.140;6.296;2022-07-30T12:59:33;2.38;;;1.00;;
18812;SDS011;9534;51.140;6.296;2022-07-30T13:03:39;2.20;;;1.13;;
18812;SDS011;9534;51.140;6.296;2022-07-30T13:07:55;3.10;;;1.40;;
18812;SDS011;9534;51.140;6.296;2022-07-30T13:11:59;3.15;;;1.40;;
18812;SDS011;9534;51.140;6.296;2022-07-30T13:16:03;3.28;;;1.13;;
18812;SDS011;9534;51.140;6.296;2022-07-30T13:20:08;10.07;;;5.90;;
18812;SDS011;9534;51.140;6.296;2022-07-30T13:24:13;4.93;;;3.22;;
18812;SDS011;9534;51.140;6.296;2022-07-30T13:28:19;5.47;;;2.50;;
18812;SDS011;9534;51.140;6.296;2022-07-30T13:32:22;4.45;;;2.63;;
18812;SDS011;9534;51.140;6.296;2022-07-30T13:36:25;5.65;;;2.30;;
18812;SDS011;9534;51.140;6.296;2022-07-30T13:40:29;20.17;;;7.28;;
18812;SDS011;9534;51.140;6.296;2022-07-30T13:44:33;13.80;;;5.10;;
18812;SDS011;9534;51.140;6.296;2022-07-30T13:48:36;2.22;;;1.52;;
18812;SDS011;9534;51.140;6.296;2022-07-30T13:52:40;2.15;;;1.60;;
18812;SDS011;9534;51.140;6.296;2022-07-30T13:56:44;3.58;;;1.33;;
18812;SDS011;9534;51.140;6.296;2022-07-30T14:00:48;4.20;;;1.80;;
18812;SDS011;9534;51.140;6.296;2022-07-30T14:04:51;2.60;;;1.33;;
18812;SDS011;9534;51.140;6.296;2022-07-30T14:08:59;4.03;;;1.45;;
18812;SDS011;9534;51.140;6.296;2022-07-30T14:13:08;20.83;;;9.43;;
18812;SDS011;9534;51.140;6.296;2022-07-30T14:17:24;4.28;;;1.42;;
18812;SDS011;9534;51.140;6.296;2022-07-30T14:21:31;2.70;;;1.38;;
18812;SDS011;9534;51.140;6.296;2022-07-30T14:25:39;1.83;;;1.25;;
18812;SDS011;9534;51.140;6.296;2022-07-30T14:29:49;2.75;;;1.50;;
18812;SDS011;9534;51.140;6.296;2022-07-30T14:33:57;7.60;;;1.55;;
18812;SDS011;9534;51.140;6.296;2022-07-30T14:38:04;4.95;;;1.75;;
18812;SDS011;9534;51.140;6.296;2022-07-30T14:42:10;5.95;;;1.10;;
18812;SDS011;9534;51.140;6.296;2022-07-30T14:46:18;3.70;;;1.60;;
18812;SDS011;9534;51.140;6.296;2022-07-30T14:50:25;3.45;;;1.30;;
18812;SDS011;9534;51.140;6.296;2022-07-30T14:54:32;1.60;;;1.30;;
18812;SDS011;9534;51.140;6.296;2022-07-30T14:58:39;1.33;;;0.85;;
18812;SDS011;9534;51.140;6.296;2022-07-30T15:02:47;1.73;;;1.13;;
18812;SDS011;9534;51.140;6.296;2022-07-30T15:06:53;1.80;;;1.20;;
18812;SDS011;9534;51.140;6.296;2022-07-30T15:10:59;3.85;;;1.45;;
18812;SDS011;9534;51.140;6.296;2022-07-30T15:15:09;3.30;;;1.58;;
18812;SDS011;9534;51.140;6.296;2022-07-30T15:19:18;2.08;;;1.27;;
18812;SDS011;9534;51.140;6.296;2022-07-30T15:23:25;2.67;;;1.30;;
18812;SDS011;9534;51.140;6.296;2022-07-30T15:27:33;1.83;;;1.30;;
18812;SDS011;9534;51.140;6.296;2022-07-30T15:31:41;5.72;;;1.40;;
18812;SDS011;9534;51.140;6.296;2022-07-30T15:35:51;2.55;;;1.30;;
18812;SDS011;9534;51.140;6.296;2022-07-30T15:39:59;2.70;;;1.40;;
18812;SDS011;9534;51.140;6.296;2022-07-30T15:44:07;1.80;;;1.50;;
18812;SDS011;9534;51.140;6.296;2022-07-30T15:48:18;1.42;;;1.13;;
18812;SDS011;9534;51.140;6.296;2022-07-30T15:52:32;2.13;;;1.30;;
18812;SDS011;9534;51.140;6.296;2022-07-30T15:56:43;4.32;;;1.50;;
18812;SDS011;9534;51.140;6.296;2022-07-30T16:00:54;3.22;;;1.20;;
18812;SDS011;9534;51.140;6.296;2022-07-30T16:05:00;3.15;;;1.27;;
18812;SDS011;9534;51.140;6.296;2022-07-30T16:09:12;34.55;;;21.17;;
18812;SDS011;9534;51.140;6.296;2022-07-30T16:13:21;19.42;;;7.97;;
18812;SDS011;9534;51.140;6.296;2022-07-30T16:17:28;3.50;;;1.30;;
18812;SDS011;9534;51.140;6.296;2022-07-30T16:21:38;3.35;;;1.52;;
18812;SDS011;9534;51.140;6.296;2022-07-30T16:25:44;2.03;;;1.40;;
18812;SDS011;9534;51.140;6.296;2022-07-30T16:29:51;3.55;;;1.55;;
18812;SDS011;9534;51.140;6.296;2022-07-30T16:33:58;6.50;;;1.38;;
18812;SDS011;9534;51.140;6.296;2022-07-30T16:38:06;2.00;;;1.40;;
18812;SDS011;9534;51.140;6.296;2022-07-30T16:42:19;3.08;;;1.50;;
18812;SDS011;9534;51.140;6.296;2022-07-30T16:46:27;2.20;;;1.30;;
18812;SDS011;9534;51.140;6.296;2022-07-30T16:50:35;2.90;;;1.40;;
18812;SDS011;9534;51.140;6.296;2022-07-30T16:54:43;1.80;;;1.40;;
18812;SDS011;9534;51.140;6.296;2022-07-30T16:58:52;3.55;;;1.60;;
18812;SDS011;9534;51.140;6.296;2022-07-30T17:03:00;3.28;;;1.42;;
18812;SDS011;9534;51.140;6.296;2022-07-30T17:07:09;5.25;;;1.80;;
18812;SDS011;9534;51.140;6.296;2022-07-30T17:11:17;6.30;;;1.80;;
18812;SDS011;9534;51.140;6.296;2022-07-30T17:15:47;2.22;;;1.48;;
18812;SDS011;9534;51.140;6.296;2022-07-30T17:19:56;2.40;;;1.52;;
18812;SDS011;9534;51.140;6.296;2022-07-30T17:24:06;4.70;;;1.63;;
18812;SDS011;9534;51.140;6.296;2022-07-30T17:28:18;3.55;;;1.75;;
18812;SDS011;9534;51.140;6.296;2022-07-30T17:32:31;6.95;;;1.88;;
18812;SDS011;9534;51.140;6.296;2022-07-30T17:36:40;5.30;;;2.22;;
18812;SDS011;9534;51.140;6.296;2022-07-30T17:40:55;2.95;;;1.58;;
18812;SDS011;9534;51.140;6.296;2022-07-30T17:45:07;3.65;;;1.60;;
18812;SDS011;9534;51.140;6.296;2022-07-30T17:49:17;5.03;;;1.88;;
18812;SDS011;9534;51.140;6.296;2022-07-30T17:53:28;4.32;;;1.83;;
18812;SDS011;9534;51.140;6.296;2022-07-30T17:57:38;7.30;;;2.05;;
18812;SDS011;9534;51.140;6.296;2022-07-30T18:01:48;2.92;;;1.50;;
18812;SDS011;9534;51.140;6.296;2022-07-30T18:05:58;2.63;;;2.03;;
18812;SDS011;9534;51.140;6.296;2022-07-30T18:10:08;3.05;;;1.67;;
18812;SDS011;9534;51.140;6.296;2022-07-30T18:14:19;5.00;;;1.60;;
18812;SDS011;9534;51.140;6.296;2022-07-30T18:18:26;2.83;;;1.80;;
18812;SDS011;9534;51.140;6.296;2022-07-30T18:22:38;8.18;;;2.00;;
18812;SDS011;9534;51.140;6.296;2022-07-30T18:26:45;3.42;;;1.98;;
18812;SDS011;9534;51.140;6.296;2022-07-30T18:30:53;2.92;;;1.70;;
18812;SDS011;9534;51.140;6.296;2022-07-30T18:34:57;2.75;;;1.60;;
18812;SDS011;9534;51.140;6.296;2022-07-30T18:39:03;2.83;;;1.83;;
18812;SDS011;9534;51.140;6.296;2022-07-30T18:43:07;4.20;;;2.00;;
18812;SDS011;9534;51.140;6.296;2022-07-30T18:47:12;2.67;;;1.90;;
18812;SDS011;9534;51.140;6.296;2022-07-30T18:51:16;3.40;;;1.80;;
18812;SDS011;9534;51.140;6.296;2022-07-30T18:55:21;2.97;;;1.90;;
18812;SDS011;9534;51.140;6.296;2022-07-30T18:59:26;2.00;;;1.50;;
18812;SDS011;9534;51.140;6.296;2022-07-30T19:03:36;5.65;;;2.00;;
18812;SDS011;9534;51.140;6.296;2022-07-30T19:07:43;7.40;;;2.10;;
18812;SDS011;9534;51.140;6.296;2022-07-30T19:12:03;5.85;;;2.25;;
18812;SDS011;9534;51.140;6.296;2022-07-30T19:16:13;4.72;;;1.77;;
18812;SDS011;9534;51.140;6.296;2022-07-30T19:20:23;3.53;;;1.60;;
18812;SDS011;9534;51.140;6.296;2022-07-30T19:24:30;2.80;;;1.70;;
18812;SDS011;9534;51.140;6.296;2022-07-30T19:28:42;4.68;;;1.90;;
18812;SDS011;9534;51.140;6.296;2022-07-30T19:32:49;5.88;;;1.92;;
18812;SDS011;9534;51.140;6.296;2022-07-30T19:36:56;5.13;;;1.90;;
18812;SDS011;9534;51.140;6.296;2022-07-30T19:41:04;4.68;;;2.20;;
18812;SDS011;9534;51.140;6.296;2022-07-30T19:45:11;3.30;;;1.90;;
18812;SDS011;9534;51.140;6.296;2022-07-30T19:49:17;4.18;;;1.92;;
18812;SDS011;9534;51.140;6.296;2022-07-30T19:53:32;4.32;;;2.40;;
18812;SDS011;9534;51.140;6.296;2022-07-30T19:57:43;5.55;;;2.40;;
18812;SDS011;9534;51.140;6.296;2022-07-30T20:01:59;2.88;;;1.95;;
18812;SDS011;9534;51.140;6.296;2022-07-30T20:06:10;3.25;;;1.98;;
18812;SDS011;9534;51.140;6.296;2022-07-30T20:10:16;4.28;;;1.90;;
18812;SDS011;9534;51.140;6.296;2022-07-30T20:14:22;5.75;;;2.25;;
18812;SDS011;9534;51.140;6.296;2022-07-30T20:18:29;3.85;;;1.95;;
18812;SDS011;9534;51.140;6.296;2022-07-30T20:22:35;4.00;;;2.08;;
18812;SDS011;9534;51.140;6.296;2022-07-30T20:26:42;6.18;;;2.20;;
18812;SDS011;9534;51.140;6.296;2022-07-30T20:30:49;6.70;;;2.47;;
18812;SDS011;9534;51.140;6.296;2022-07-30T20:35:02;9.07;;;2.53;;
18812;SDS011;9534;51.140;6.296;2022-07-30T20:39:08;7.68;;;2.47;;
18812;SDS011;9534;51.140;6.296;2022-07-30T20:43:22;9.15;;;2.85;;
18812;SDS011;9534;51.140;6.296;2022-07-30T20:47:29;6.32;;;1.90;;
18812;SDS011;9534;51.140;6.296;2022-07-30T20:51:41;7.22;;;3.22;;
18812;SDS011;9534;51.140;6.296;2022-07-30T20:55:52;2.38;;;1.92;;
18812;SDS011;9534;51.140;6.296;2022-07-30T21:00:02;2.75;;;2.00;;
18812;SDS011;9534;51.140;6.296;2022-07-30T21:04:11;5.15;;;2.20;;
18812;SDS011;9534;51.140;6.296;2022-07-30T21:08:40;3.75;;;2.10;;
18812;SDS011;9534;51.140;6.296;2022-07-30T21:12:49;5.60;;;2.10;;
18812;SDS011;9534;51.140;6.296;2022-07-30T21:17:18;4.03;;;2.20;;
18812;SDS011;9534;51.140;6.296;2022-07-30T21:21:30;5.78;;;1.85;;
18812;SDS011;9534;51.140;6.296;2022-07-30T21:26:00;5.72;;;1.90;;
18812;SDS011;9534;51.140;6.296;2022-07-30T21:30:15;3.97;;;2.10;;
18812;SDS011;9534;51.140;6.296;2022-07-30T21:34:26;3.75;;;1.90;;
18812;SDS011;9534;51.140;6.296;2022-07-30T21:38:45;12.10;;;6.07;;
18812;SDS011;9534;51.140;6.296;2022-07-30T21:42:57;7.40;;;2.70;;
18812;SDS011;9534;51.140;6.296;2022-07-30T21:47:10;4.95;;;1.95;;
18812;SDS011;9534;51.140;6.296;2022-07-30T21:51:19;9.05;;;2.42;;
18812;SDS011;9534;51.140;6.296;2022-07-30T21:55:30;3.45;;;2.30;;
18812;SDS011;9534;51.140;6.296;2022-07-30T21:59:56;4.80;;;1.95;;
18812;SDS011;9534;51.140;6.296;2022-07-30T22:04:12;7.82;;;2.53;;
18812;SDS011;9534;51.140;6.296;2022-07-30T22:08:21;4.85;;;2.05;;
18812;SDS011;9534;51.140;6.296;2022-07-30T22:12:38;3.67;;;2.05;;
18812;SDS011;9534;51.140;6.296;2022-07-30T22:16:49;2.78;;;2.08;;
18812;SDS011;9534;51.140;6.296;2022-07-30T22:20:56;58.85;;;21.83;;
18812;SDS011;9534;51.140;6.296;2022-07-30T22:25:04;5.35;;;2.13;;
18812;SDS011;9534;51.140;6.296;2022-07-30T22:29:13;8.15;;;2.00;;
18812;SDS011;9534;51.140;6.296;2022-07-30T22:33:23;3.80;;;1.98;;
18812;SDS011;9534;51.140;6.296;2022-07-30T22:37:34;4.50;;;2.03;;
18812;SDS011;9534;51.140;6.296;2022-07-30T22:41:48;4.50;;;2.10;;
18812;SDS011;9534;51.140;6.296;2022-07-30T22:45:55;5.30;;;2.22;;
18812;SDS011;9534;51.140;6.296;2022-07-30T22:50:07;2.88;;;1.98;;
18812;SDS011;9534;51.140;6.296;2022-07-30T22:54:13;8.00;;;2.20;;
18812;SDS011;9534;51.140;6.296;2022-07-30T22:58:25;2.92;;;1.88;;
18812;SDS011;9534;51.140;6.296;2022-07-30T23:02:33;7.13;;;2.15;;
18812;SDS011;9534;51.140;6.296;2022-07-30T23:06:43;4.70;;;1.80;;
18812;SDS011;9534;51.140;6.296;2022-07-30T23:10:52;3.72;;;2.17;;
18812;SDS011;9534;51.140;6.296;2022-07-30T23:15:02;3.78;;;2.22;;
18812;SDS011;9534;51.140;6.296;2022-07-30T23:19:08;3.50;;;2.30;;
18812;SDS011;9534;51.140;6.296;2022-07-30T23:23:29;3.88;;;2.38;;
18812;SDS011;9534;51.140;6.296;2022-07-30T23:27:39;6.65;;;2.42;;
18812;SDS011;9534;51.140;6.296;2022-07-30T23:31:50;5.63;;;2.30;;
18812;SDS011;9534;51.140;6.296;2022-07-30T23:35:59;5.75;;;2.33;;
18812;SDS011;9534;51.140;6.296;2022-07-30T23:40:13;7.28;;;1.90;;
18812;SDS011;9534;51.140;6.296;2022-07-30T23:44:24;4.15;;;1.90;;
18812;SDS011;9534;51.140;6.296;2022-07-30T23:48:39;6.05;;;1.95;;
18812;SDS011;9534;51.140;6.296;2022-07-30T23:52:48;2.78;;;1.65;;
18812;SDS011;9534;51.140;6.296;2022-07-30T23:57:01;3.65;;;1.70;;
